sensor_id;sensor_type;location;lat;lon;timestamp;temperature;humidity
31677;DHT22;18385;51.572;6.578;2023-03-20T00:01:18;13.00;61.10
31677;DHT22;18385;51.572;6.578;2023-03-20T00:03:44;13.00;61.10
31677;DHT22;18385;51.572;6.578;2023-03-20T00:06:22;13.00;61.20
31677;DHT22;18385;51.572;6.578;2023-03-20T00:08:50;13.00;61.30
31677;DHT22;18385;51.572;6.578;2023-03-20T00:13:52;13.00;61.20
31677;DHT22;18385;51.572;6.578;2023-03-20T00:16:19;13.00;61.20
31677;DHT22;18385;51.572;6.578;2023-03-20T00:18:45;13.00;61.30
31677;DHT22;18385;51.572;6.578;2023-03-20T00:21:17;13.00;61.30
31677;DHT22;18385;51.572;6.578;2023-03-20T00:23:44;13.00;62.00
31677;DHT22;18385;51.572;6.578;2023-03-20T00:26:15;13.00;61.20
31677;DHT22;18385;51.572;6.578;2023-03-20T00:28:49;13.00;61.30
31677;DHT22;18385;51.572;6.578;2023-03-20T00:31:24;13.00;61.30
31677;DHT22;18385;51.572;6.578;2023-03-20T00:33:56;13.00;61.30
31677;DHT22;18385;51.572;6.578;2023-03-20T00:36:23;12.90;61.20
31677;DHT22;18385;51.572;6.578;2023-03-20T00:38:49;12.90;61.30
31677;DHT22;18385;51.572;6.578;2023-03-20T00:41:24;12.90;61.40
31677;DHT22;18385;51.572;6.578;2023-03-20T00:43:55;12.90;61.40
31677;DHT22;18385;51.572;6.578;2023-03-20T00:46:22;12.90;61.40
31677;DHT22;18385;51.572;6.578;2023-03-20T00:48:49;12.90;61.40
31677;DHT22;18385;51.572;6.578;2023-03-20T00:51:16;12.90;61.40
31677;DHT22;18385;51.572;6.578;2023-03-20T00:53:41;12.90;62.20
31677;DHT22;18385;51.572;6.578;2023-03-20T00:56:26;13.00;61.50
31677;DHT22;18385;51.572;6.578;2023-03-20T00:58:53;12.90;61.40
31677;DHT22;18385;51.572;6.578;2023-03-20T01:01:19;12.90;61.40
31677;DHT22;18385;51.572;6.578;2023-03-20T01:03:44;12.90;61.40
31677;DHT22;18385;51.572;6.578;2023-03-20T01:06:11;12.90;61.40
31677;DHT22;18385;51.572;6.578;2023-03-20T01:08:37;12.90;61.40
31677;DHT22;18385;51.572;6.578;2023-03-20T01:11:03;12.90;61.30
31677;DHT22;18385;51.572;6.578;2023-03-20T01:13:30;12.90;61.40
31677;DHT22;18385;51.572;6.578;2023-03-20T01:15:57;12.90;61.40
31677;DHT22;18385;51.572;6.578;2023-03-20T01:18:24;12.90;61.50
31677;DHT22;18385;51.572;6.578;2023-03-20T01:20:51;12.90;61.40
31677;DHT22;18385;51.572;6.578;2023-03-20T01:23:20;12.90;61.50
31677;DHT22;18385;51.572;6.578;2023-03-20T01:25:47;12.90;61.50
31677;DHT22;18385;51.572;6.578;2023-03-20T01:28:21;12.80;61.50
31677;DHT22;18385;51.572;6.578;2023-03-20T01:30:47;12.80;61.60
31677;DHT22;18385;51.572;6.578;2023-03-20T01:33:18;12.80;61.60
31677;DHT22;18385;51.572;6.578;2023-03-20T01:35:49;12.80;61.70
31677;DHT22;18385;51.572;6.578;2023-03-20T01:38:21;12.80;61.60
31677;DHT22;18385;51.572;6.578;2023-03-20T01:41:01;12.80;61.60
31677;DHT22;18385;51.572;6.578;2023-03-20T01:43:33;12.80;61.70
31677;DHT22;18385;51.572;6.578;2023-03-20T01:51:20;12.70;61.70
31677;DHT22;18385;51.572;6.578;2023-03-20T01:53:56;12.80;61.80
31677;DHT22;18385;51.572;6.578;2023-03-20T01:56:23;12.80;61.70
31677;DHT22;18385;51.572;6.578;2023-03-20T01:58:56;12.80;61.70
31677;DHT22;18385;51.572;6.578;2023-03-20T02:01:23;12.80;61.70
31677;DHT22;18385;51.572;6.578;2023-03-20T02:03:50;12.90;61.70
31677;DHT22;18385;51.572;6.578;2023-03-20T02:06:37;12.90;61.60
31677;DHT22;18385;51.572;6.578;2023-03-20T02:09:30;12.90;61.60
31677;DHT22;18385;51.572;6.578;2023-03-20T02:11:58;12.80;61.70
31677;DHT22;18385;51.572;6.578;2023-03-20T02:14:25;12.80;62.50
31677;DHT22;18385;51.572;6.578;2023-03-20T02:16:57;12.80;61.70
31677;DHT22;18385;51.572;6.578;2023-03-20T02:25:09;12.80;61.80
31677;DHT22;18385;51.572;6.578;2023-03-20T02:41:25;12.80;61.90
31677;DHT22;18385;51.572;6.578;2023-03-20T02:46:31;12.80;62.00
31677;DHT22;18385;51.572;6.578;2023-03-20T02:55:01;12.70;61.90
31677;DHT22;18385;51.572;6.578;2023-03-20T02:57:40;12.70;61.90
31677;DHT22;18385;51.572;6.578;2023-03-20T03:00:13;12.60;62.00
31677;DHT22;18385;51.572;6.578;2023-03-20T03:02:51;12.60;62.00
31677;DHT22;18385;51.572;6.578;2023-03-20T03:05:24;12.60;62.20
31677;DHT22;18385;51.572;6.578;2023-03-20T03:07:55;12.50;62.20
31677;DHT22;18385;51.572;6.578;2023-03-20T03:10:30;12.50;62.30
31677;DHT22;18385;51.572;6.578;2023-03-20T03:12:59;12.50;62.20
31677;DHT22;18385;51.572;6.578;2023-03-20T03:15:28;12.50;62.30
31677;DHT22;18385;51.572;6.578;2023-03-20T03:17:58;12.60;62.30
31677;DHT22;18385;51.572;6.578;2023-03-20T03:20:30;12.60;62.30
31677;DHT22;18385;51.572;6.578;2023-03-20T03:22:58;12.60;62.30
31677;DHT22;18385;51.572;6.578;2023-03-20T03:25:28;12.50;62.30
31677;DHT22;18385;51.572;6.578;2023-03-20T03:30:34;12.60;62.50
31677;DHT22;18385;51.572;6.578;2023-03-20T03:33:20;12.60;62.50
31677;DHT22;18385;51.572;6.578;2023-03-20T03:35:48;12.60;62.50
31677;DHT22;18385;51.572;6.578;2023-03-20T03:44:06;12.50;62.60
31677;DHT22;18385;51.572;6.578;2023-03-20T03:46:59;12.40;62.70
31677;DHT22;18385;51.572;6.578;2023-03-20T03:49:31;12.40;62.80
31677;DHT22;18385;51.572;6.578;2023-03-20T03:52:05;12.40;62.70
31677;DHT22;18385;51.572;6.578;2023-03-20T03:54:46;12.30;62.60
31677;DHT22;18385;51.572;6.578;2023-03-20T03:57:49;12.30;62.80
31677;DHT22;18385;51.572;6.578;2023-03-20T04:00:20;12.20;62.90
31677;DHT22;18385;51.572;6.578;2023-03-20T04:02:51;12.10;62.90
31677;DHT22;18385;51.572;6.578;2023-03-20T04:05:19;12.10;63.00
31677;DHT22;18385;51.572;6.578;2023-03-20T04:07:47;12.00;63.10
31677;DHT22;18385;51.572;6.578;2023-03-20T04:10:13;11.90;63.10
31677;DHT22;18385;51.572;6.578;2023-03-20T04:12:41;11.80;63.20
31677;DHT22;18385;51.572;6.578;2023-03-20T04:15:11;11.80;63.30
31677;DHT22;18385;51.572;6.578;2023-03-20T04:17:38;11.80;63.40
31677;DHT22;18385;51.572;6.578;2023-03-20T04:20:05;11.70;63.40
31677;DHT22;18385;51.572;6.578;2023-03-20T04:22:32;11.70;63.50
31677;DHT22;18385;51.572;6.578;2023-03-20T04:25:06;11.70;63.50
31677;DHT22;18385;51.572;6.578;2023-03-20T04:27:32;11.60;63.60
31677;DHT22;18385;51.572;6.578;2023-03-20T04:29:58;11.60;63.60
31677;DHT22;18385;51.572;6.578;2023-03-20T04:32:50;11.60;63.70
31677;DHT22;18385;51.572;6.578;2023-03-20T04:35:22;11.50;63.70
31677;DHT22;18385;51.572;6.578;2023-03-20T04:37:55;11.50;63.80
31677;DHT22;18385;51.572;6.578;2023-03-20T04:40:21;11.50;63.90
31677;DHT22;18385;51.572;6.578;2023-03-20T04:42:47;11.50;63.90
31677;DHT22;18385;51.572;6.578;2023-03-20T04:45:12;11.50;63.90
31677;DHT22;18385;51.572;6.578;2023-03-20T04:47:38;11.50;64.80
31677;DHT22;18385;51.572;6.578;2023-03-20T04:50:05;11.50;64.10
31677;DHT22;18385;51.572;6.578;2023-03-20T04:52:31;11.40;64.10
31677;DHT22;18385;51.572;6.578;2023-03-20T04:54:57;11.40;64.10
31677;DHT22;18385;51.572;6.578;2023-03-20T04:57:23;11.40;64.10
31677;DHT22;18385;51.572;6.578;2023-03-20T04:59:49;11.40;64.10
31677;DHT22;18385;51.572;6.578;2023-03-20T05:02:16;11.40;64.20
31677;DHT22;18385;51.572;6.578;2023-03-20T05:04:42;11.40;64.20
31677;DHT22;18385;51.572;6.578;2023-03-20T05:07:09;11.40;64.30
31677;DHT22;18385;51.572;6.578;2023-03-20T05:09:47;11.30;64.20
31677;DHT22;18385;51.572;6.578;2023-03-20T05:12:13;11.30;64.30
31677;DHT22;18385;51.572;6.578;2023-03-20T05:14:59;11.30;64.40
31677;DHT22;18385;51.572;6.578;2023-03-20T05:17:44;11.20;64.40
31677;DHT22;18385;51.572;6.578;2023-03-20T05:20:32;11.20;64.50
31677;DHT22;18385;51.572;6.578;2023-03-20T05:23:18;11.20;64.50
31677;DHT22;18385;51.572;6.578;2023-03-20T05:26:02;11.10;64.60
31677;DHT22;18385;51.572;6.578;2023-03-20T05:28:37;11.10;64.70
31677;DHT22;18385;51.572;6.578;2023-03-20T05:31:11;11.10;64.70
31677;DHT22;18385;51.572;6.578;2023-03-20T05:34:12;11.10;64.70
31677;DHT22;18385;51.572;6.578;2023-03-20T05:36:58;11.00;64.70
31677;DHT22;18385;51.572;6.578;2023-03-20T05:39:42;11.00;65.60
31677;DHT22;18385;51.572;6.578;2023-03-20T05:42:32;11.00;64.90
31677;DHT22;18385;51.572;6.578;2023-03-20T05:45:27;11.00;64.90
31677;DHT22;18385;51.572;6.578;2023-03-20T05:48:11;11.00;64.90
31677;DHT22;18385;51.572;6.578;2023-03-20T05:50:40;11.00;64.90
31677;DHT22;18385;51.572;6.578;2023-03-20T05:53:19;11.00;65.00
31677;DHT22;18385;51.572;6.578;2023-03-20T05:55:54;11.10;65.00
31677;DHT22;18385;51.572;6.578;2023-03-20T05:58:38;11.10;64.90
31677;DHT22;18385;51.572;6.578;2023-03-20T06:01:22;11.10;64.90
31677;DHT22;18385;51.572;6.578;2023-03-20T06:04:11;11.10;64.90
31677;DHT22;18385;51.572;6.578;2023-03-20T06:06:59;11.10;64.90
31677;DHT22;18385;51.572;6.578;2023-03-20T06:09:26;11.10;64.90
31677;DHT22;18385;51.572;6.578;2023-03-20T06:11:52;11.10;64.90
31677;DHT22;18385;51.572;6.578;2023-03-20T06:14:18;11.20;64.90
31677;DHT22;18385;51.572;6.578;2023-03-20T06:16:51;11.20;64.80
31677;DHT22;18385;51.572;6.578;2023-03-20T06:19:20;11.20;64.80
31677;DHT22;18385;51.572;6.578;2023-03-20T06:21:49;11.20;64.80
31677;DHT22;18385;51.572;6.578;2023-03-20T06:24:18;11.20;64.90
31677;DHT22;18385;51.572;6.578;2023-03-20T06:26:44;11.30;64.80
31677;DHT22;18385;51.572;6.578;2023-03-20T06:29:12;11.30;64.70
31677;DHT22;18385;51.572;6.578;2023-03-20T06:31:38;11.40;64.70
31677;DHT22;18385;51.572;6.578;2023-03-20T06:34:05;11.40;64.70
31677;DHT22;18385;51.572;6.578;2023-03-20T06:36:37;11.50;64.60
31677;DHT22;18385;51.572;6.578;2023-03-20T06:39:08;11.50;64.60
31677;DHT22;18385;51.572;6.578;2023-03-20T06:41:34;11.50;64.50
31677;DHT22;18385;51.572;6.578;2023-03-20T06:44:03;11.60;64.50
31677;DHT22;18385;51.572;6.578;2023-03-20T06:46:47;11.60;64.50
31677;DHT22;18385;51.572;6.578;2023-03-20T06:49:13;11.60;64.50
31677;DHT22;18385;51.572;6.578;2023-03-20T06:51:39;11.70;64.50
31677;DHT22;18385;51.572;6.578;2023-03-20T06:54:05;11.70;64.30
31677;DHT22;18385;51.572;6.578;2023-03-20T06:56:31;11.70;64.30
31677;DHT22;18385;51.572;6.578;2023-03-20T06:58:56;11.80;64.30
31677;DHT22;18385;51.572;6.578;2023-03-20T07:01:23;11.80;64.20
31677;DHT22;18385;51.572;6.578;2023-03-20T07:03:49;11.80;64.10
31677;DHT22;18385;51.572;6.578;2023-03-20T07:06:20;11.80;64.20
31677;DHT22;18385;51.572;6.578;2023-03-20T07:08:46;11.90;64.20
31677;DHT22;18385;51.572;6.578;2023-03-20T07:11:12;12.00;64.10
31677;DHT22;18385;51.572;6.578;2023-03-20T07:13:39;12.00;63.90
31677;DHT22;18385;51.572;6.578;2023-03-20T07:16:16;12.00;63.90
31677;DHT22;18385;51.572;6.578;2023-03-20T07:18:42;12.10;63.90
31677;DHT22;18385;51.572;6.578;2023-03-20T07:21:17;12.20;63.90
31677;DHT22;18385;51.572;6.578;2023-03-20T07:23:44;12.20;63.70
31677;DHT22;18385;51.572;6.578;2023-03-20T07:26:10;12.30;63.80
31677;DHT22;18385;51.572;6.578;2023-03-20T07:28:35;12.40;63.50
31677;DHT22;18385;51.572;6.578;2023-03-20T07:31:30;12.50;63.60
31677;DHT22;18385;51.572;6.578;2023-03-20T07:34:10;12.60;63.50
31677;DHT22;18385;51.572;6.578;2023-03-20T07:36:38;12.70;63.20
31677;DHT22;18385;51.572;6.578;2023-03-20T07:39:04;12.70;63.10
31677;DHT22;18385;51.572;6.578;2023-03-20T07:41:31;12.80;63.10
31677;DHT22;18385;51.572;6.578;2023-03-20T07:44:02;12.80;62.90
31677;DHT22;18385;51.572;6.578;2023-03-20T07:46:45;12.80;62.90
31677;DHT22;18385;51.572;6.578;2023-03-20T07:49:15;12.90;62.80
31677;DHT22;18385;51.572;6.578;2023-03-20T07:51:46;13.00;62.90
31677;DHT22;18385;51.572;6.578;2023-03-20T07:54:12;13.10;62.70
31677;DHT22;18385;51.572;6.578;2023-03-20T07:56:38;13.20;62.60
31677;DHT22;18385;51.572;6.578;2023-03-20T07:59:03;13.20;62.20
31677;DHT22;18385;51.572;6.578;2023-03-20T08:01:29;13.20;62.40
31677;DHT22;18385;51.572;6.578;2023-03-20T08:03:55;13.20;61.90
31677;DHT22;18385;51.572;6.578;2023-03-20T08:06:21;13.20;62.00
31677;DHT22;18385;51.572;6.578;2023-03-20T08:08:47;13.20;61.80
31677;DHT22;18385;51.572;6.578;2023-03-20T08:11:16;13.20;61.70
31677;DHT22;18385;51.572;6.578;2023-03-20T08:13:42;13.20;61.80
31677;DHT22;18385;51.572;6.578;2023-03-20T08:16:08;13.20;61.60
31677;DHT22;18385;51.572;6.578;2023-03-20T08:18:34;13.10;61.60
31677;DHT22;18385;51.572;6.578;2023-03-20T08:21:00;13.10;61.60
31677;DHT22;18385;51.572;6.578;2023-03-20T08:23:26;13.00;61.50
31677;DHT22;18385;51.572;6.578;2023-03-20T08:25:52;13.10;61.60
31677;DHT22;18385;51.572;6.578;2023-03-20T08:28:19;13.10;61.40
31677;DHT22;18385;51.572;6.578;2023-03-20T08:30:45;13.10;61.30
31677;DHT22;18385;51.572;6.578;2023-03-20T08:33:13;13.20;61.40
31677;DHT22;18385;51.572;6.578;2023-03-20T08:35:38;13.20;61.10
31677;DHT22;18385;51.572;6.578;2023-03-20T08:38:04;13.30;61.20
31677;DHT22;18385;51.572;6.578;2023-03-20T08:40:30;13.40;61.00
31677;DHT22;18385;51.572;6.578;2023-03-20T08:42:56;13.60;60.90
31677;DHT22;18385;51.572;6.578;2023-03-20T08:45:21;13.70;60.60
31677;DHT22;18385;51.572;6.578;2023-03-20T08:47:51;13.70;60.20
31677;DHT22;18385;51.572;6.578;2023-03-20T08:50:17;13.70;60.10
31677;DHT22;18385;51.572;6.578;2023-03-20T08:52:43;13.70;59.90
31677;DHT22;18385;51.572;6.578;2023-03-20T08:55:12;13.70;60.00
31677;DHT22;18385;51.572;6.578;2023-03-20T08:57:39;13.80;60.00
31677;DHT22;18385;51.572;6.578;2023-03-20T09:00:06;13.90;59.80
31677;DHT22;18385;51.572;6.578;2023-03-20T09:02:33;14.00;59.60
31677;DHT22;18385;51.572;6.578;2023-03-20T09:04:59;13.90;59.10
31677;DHT22;18385;51.572;6.578;2023-03-20T09:07:24;13.80;59.30
31677;DHT22;18385;51.572;6.578;2023-03-20T09:09:50;13.80;59.30
31677;DHT22;18385;51.572;6.578;2023-03-20T09:12:16;13.90;59.40
31677;DHT22;18385;51.572;6.578;2023-03-20T09:14:41;13.90;59.40
31677;DHT22;18385;51.572;6.578;2023-03-20T09:17:07;13.90;59.10
31677;DHT22;18385;51.572;6.578;2023-03-20T09:19:33;13.90;59.00
31677;DHT22;18385;51.572;6.578;2023-03-20T09:21:59;13.90;58.80
31677;DHT22;18385;51.572;6.578;2023-03-20T09:24:25;13.90;58.70
31677;DHT22;18385;51.572;6.578;2023-03-20T09:26:51;13.90;58.60
31677;DHT22;18385;51.572;6.578;2023-03-20T09:29:16;14.00;58.70
31677;DHT22;18385;51.572;6.578;2023-03-20T09:31:42;14.00;58.40
31677;DHT22;18385;51.572;6.578;2023-03-20T09:34:08;14.10;58.20
31677;DHT22;18385;51.572;6.578;2023-03-20T09:36:34;14.10;58.10
31677;DHT22;18385;51.572;6.578;2023-03-20T09:38:59;14.20;58.00
31677;DHT22;18385;51.572;6.578;2023-03-20T09:41:25;14.20;57.80
31677;DHT22;18385;51.572;6.578;2023-03-20T09:46:40;14.20;57.30
31677;DHT22;18385;51.572;6.578;2023-03-20T09:51:55;14.20;57.40
31677;DHT22;18385;51.572;6.578;2023-03-20T09:56:51;14.20;57.20
31677;DHT22;18385;51.572;6.578;2023-03-20T09:59:18;14.30;57.20
31677;DHT22;18385;51.572;6.578;2023-03-20T10:04:18;14.40;56.70
31677;DHT22;18385;51.572;6.578;2023-03-20T10:06:45;14.40;56.70
31677;DHT22;18385;51.572;6.578;2023-03-20T10:09:20;14.40;56.50
31677;DHT22;18385;51.572;6.578;2023-03-20T10:17:55;14.60;56.40
31677;DHT22;18385;51.572;6.578;2023-03-20T10:25:48;14.40;55.80
31677;DHT22;18385;51.572;6.578;2023-03-20T10:39:05;14.90;56.00
31677;DHT22;18385;51.572;6.578;2023-03-20T10:41:38;15.00;55.50
31677;DHT22;18385;51.572;6.578;2023-03-20T10:44:13;15.00;55.00
31677;DHT22;18385;51.572;6.578;2023-03-20T10:46:42;15.00;54.90
31677;DHT22;18385;51.572;6.578;2023-03-20T10:49:35;14.90;54.80
31677;DHT22;18385;51.572;6.578;2023-03-20T10:52:11;15.10;55.00
31677;DHT22;18385;51.572;6.578;2023-03-20T10:54:45;15.10;54.90
31677;DHT22;18385;51.572;6.578;2023-03-20T10:57:28;15.10;54.70
31677;DHT22;18385;51.572;6.578;2023-03-20T10:59:55;15.10;54.40
31677;DHT22;18385;51.572;6.578;2023-03-20T11:02:26;15.10;54.80
31677;DHT22;18385;51.572;6.578;2023-03-20T11:04:52;15.10;54.60
31677;DHT22;18385;51.572;6.578;2023-03-20T11:07:49;15.20;54.40
31677;DHT22;18385;51.572;6.578;2023-03-20T11:10:15;15.20;54.70
31677;DHT22;18385;51.572;6.578;2023-03-20T11:12:48;15.30;54.70
31677;DHT22;18385;51.572;6.578;2023-03-20T11:15:31;15.50;54.60
31677;DHT22;18385;51.572;6.578;2023-03-20T11:18:00;15.50;54.20
31677;DHT22;18385;51.572;6.578;2023-03-20T11:20:32;15.40;53.90
31677;DHT22;18385;51.572;6.578;2023-03-20T11:23:03;15.30;53.80
31677;DHT22;18385;51.572;6.578;2023-03-20T11:25:37;15.10;53.70
31677;DHT22;18385;51.572;6.578;2023-03-20T11:28:30;14.90;53.90
31677;DHT22;18385;51.572;6.578;2023-03-20T11:31:24;14.90;54.30
31677;DHT22;18385;51.572;6.578;2023-03-20T11:34:09;15.00;54.70
31677;DHT22;18385;51.572;6.578;2023-03-20T11:36:36;15.10;54.50
31677;DHT22;18385;51.572;6.578;2023-03-20T11:39:25;15.10;54.20
31677;DHT22;18385;51.572;6.578;2023-03-20T11:41:54;15.00;53.90
31677;DHT22;18385;51.572;6.578;2023-03-20T11:44:32;14.90;54.00
31677;DHT22;18385;51.572;6.578;2023-03-20T11:47:11;14.80;53.90
31677;DHT22;18385;51.572;6.578;2023-03-20T11:50:05;14.60;54.10
31677;DHT22;18385;51.572;6.578;2023-03-20T11:52:34;14.60;54.20
31677;DHT22;18385;51.572;6.578;2023-03-20T11:55:04;14.60;54.40
31677;DHT22;18385;51.572;6.578;2023-03-20T11:57:35;14.60;54.40
31677;DHT22;18385;51.572;6.578;2023-03-20T12:02:36;15.00;54.50
31677;DHT22;18385;51.572;6.578;2023-03-20T12:07:56;15.00;54.60
31677;DHT22;18385;51.572;6.578;2023-03-20T12:10:25;14.90;54.20
31677;DHT22;18385;51.572;6.578;2023-03-20T12:12:58;15.00;54.20
31677;DHT22;18385;51.572;6.578;2023-03-20T12:15:30;15.00;53.90
31677;DHT22;18385;51.572;6.578;2023-03-20T12:24:10;14.90;54.20
31677;DHT22;18385;51.572;6.578;2023-03-20T12:26:50;14.80;54.10
31677;DHT22;18385;51.572;6.578;2023-03-20T12:29:34;14.80;54.20
31677;DHT22;18385;51.572;6.578;2023-03-20T12:32:07;14.90;54.20
31677;DHT22;18385;51.572;6.578;2023-03-20T12:34:43;15.00;54.30
31677;DHT22;18385;51.572;6.578;2023-03-20T12:37:12;15.00;54.20
31677;DHT22;18385;51.572;6.578;2023-03-20T12:39:55;15.00;54.30
31677;DHT22;18385;51.572;6.578;2023-03-20T12:45:22;15.40;54.10
31677;DHT22;18385;51.572;6.578;2023-03-20T12:48:15;15.40;53.90
31677;DHT22;18385;51.572;6.578;2023-03-20T12:51:15;15.30;53.90
31677;DHT22;18385;51.572;6.578;2023-03-20T12:53:52;15.20;53.80
31677;DHT22;18385;51.572;6.578;2023-03-20T12:56:54;15.10;53.90
31677;DHT22;18385;51.572;6.578;2023-03-20T13:02:03;15.10;54.30
31677;DHT22;18385;51.572;6.578;2023-03-20T13:07:18;15.40;54.30
31677;DHT22;18385;51.572;6.578;2023-03-20T13:10:00;15.60;54.20
31677;DHT22;18385;51.572;6.578;2023-03-20T13:20:55;15.60;53.70
31677;DHT22;18385;51.572;6.578;2023-03-20T13:23:45;15.50;53.80
31677;DHT22;18385;51.572;6.578;2023-03-20T13:26:51;15.30;53.60
31677;DHT22;18385;51.572;6.578;2023-03-20T13:29:37;15.30;53.90
31677;DHT22;18385;51.572;6.578;2023-03-20T13:37:34;15.20;53.80
31677;DHT22;18385;51.572;6.578;2023-03-20T13:43:15;15.10;53.80
31677;DHT22;18385;51.572;6.578;2023-03-20T13:45:46;15.00;53.90
31677;DHT22;18385;51.572;6.578;2023-03-20T13:51:01;14.90;54.30
31677;DHT22;18385;51.572;6.578;2023-03-20T14:01:55;15.10;54.40
31677;DHT22;18385;51.572;6.578;2023-03-20T14:04:24;15.10;54.40
31677;DHT22;18385;51.572;6.578;2023-03-20T14:06:56;15.20;54.20
31677;DHT22;18385;51.572;6.578;2023-03-20T14:09:33;15.20;54.10
31677;DHT22;18385;51.572;6.578;2023-03-20T14:12:06;15.10;54.10
31677;DHT22;18385;51.572;6.578;2023-03-20T14:14:41;15.10;54.20
31677;DHT22;18385;51.572;6.578;2023-03-20T14:17:19;15.00;54.00
31677;DHT22;18385;51.572;6.578;2023-03-20T14:19:46;14.90;54.20
31677;DHT22;18385;51.572;6.578;2023-03-20T14:22:20;14.90;54.40
31677;DHT22;18385;51.572;6.578;2023-03-20T14:25:13;15.00;54.80
31677;DHT22;18385;51.572;6.578;2023-03-20T14:28:06;15.00;54.20
31677;DHT22;18385;51.572;6.578;2023-03-20T14:30:40;14.90;54.20
31677;DHT22;18385;51.572;6.578;2023-03-20T14:35:44;15.00;54.70
31677;DHT22;18385;51.572;6.578;2023-03-20T14:41:03;14.90;54.40
31677;DHT22;18385;51.572;6.578;2023-03-20T14:43:41;15.00;54.70
31677;DHT22;18385;51.572;6.578;2023-03-20T14:46:23;14.90;54.40
31677;DHT22;18385;51.572;6.578;2023-03-20T14:48:53;14.90;54.60
31677;DHT22;18385;51.572;6.578;2023-03-20T14:51:35;14.90;54.80
31677;DHT22;18385;51.572;6.578;2023-03-20T14:56:47;14.80;54.70
31677;DHT22;18385;51.572;6.578;2023-03-20T14:59:16;14.60;54.60
31677;DHT22;18385;51.572;6.578;2023-03-20T15:01:55;14.50;55.40
31677;DHT22;18385;51.572;6.578;2023-03-20T15:06:53;14.20;55.10
31677;DHT22;18385;51.572;6.578;2023-03-20T15:09:21;14.10;55.40
31677;DHT22;18385;51.572;6.578;2023-03-20T15:11:49;14.20;55.60
31677;DHT22;18385;51.572;6.578;2023-03-20T15:14:25;14.30;55.60
31677;DHT22;18385;51.572;6.578;2023-03-20T15:16:59;14.20;55.50
31677;DHT22;18385;51.572;6.578;2023-03-20T15:19:26;14.20;55.50
31677;DHT22;18385;51.572;6.578;2023-03-20T15:21:54;14.20;55.50
31677;DHT22;18385;51.572;6.578;2023-03-20T15:26:51;14.10;55.80
31677;DHT22;18385;51.572;6.578;2023-03-20T15:29:17;14.10;56.00
31677;DHT22;18385;51.572;6.578;2023-03-20T15:31:43;14.00;56.00
31677;DHT22;18385;51.572;6.578;2023-03-20T15:34:22;14.00;56.10
31677;DHT22;18385;51.572;6.578;2023-03-20T15:36:49;13.90;56.20
31677;DHT22;18385;51.572;6.578;2023-03-20T15:39:19;13.80;56.20
31677;DHT22;18385;51.572;6.578;2023-03-20T15:41:52;13.70;56.50
31677;DHT22;18385;51.572;6.578;2023-03-20T15:44:23;13.70;56.70
31677;DHT22;18385;51.572;6.578;2023-03-20T15:49:26;13.70;56.90
31677;DHT22;18385;51.572;6.578;2023-03-20T15:51:56;13.70;56.90
31677;DHT22;18385;51.572;6.578;2023-03-20T15:54:23;13.70;57.10
31677;DHT22;18385;51.572;6.578;2023-03-20T15:56:51;13.70;57.60
31677;DHT22;18385;51.572;6.578;2023-03-20T15:59:21;13.70;57.20
31677;DHT22;18385;51.572;6.578;2023-03-20T16:01:50;13.70;57.30
31677;DHT22;18385;51.572;6.578;2023-03-20T16:04:19;13.60;57.20
31677;DHT22;18385;51.572;6.578;2023-03-20T16:06:52;13.50;57.30
31677;DHT22;18385;51.572;6.578;2023-03-20T16:09:19;13.50;57.60
31677;DHT22;18385;51.572;6.578;2023-03-20T16:11:47;13.50;57.70
31677;DHT22;18385;51.572;6.578;2023-03-20T16:14:19;13.40;57.80
31677;DHT22;18385;51.572;6.578;2023-03-20T16:16:49;13.40;57.90
31677;DHT22;18385;51.572;6.578;2023-03-20T16:19:15;13.50;58.10
31677;DHT22;18385;51.572;6.578;2023-03-20T16:22:14;13.50;58.00
31677;DHT22;18385;51.572;6.578;2023-03-20T16:24:44;13.50;58.10
31677;DHT22;18385;51.572;6.578;2023-03-20T16:27:16;13.50;58.20
31677;DHT22;18385;51.572;6.578;2023-03-20T16:29:49;13.50;58.40
31677;DHT22;18385;51.572;6.578;2023-03-20T16:32:36;13.50;58.50
31677;DHT22;18385;51.572;6.578;2023-03-20T16:35:09;13.50;58.50
31677;DHT22;18385;51.572;6.578;2023-03-20T16:37:42;13.40;58.50
31677;DHT22;18385;51.572;6.578;2023-03-20T16:42:36;13.40;58.60
31677;DHT22;18385;51.572;6.578;2023-03-20T16:45:04;13.50;58.70
31677;DHT22;18385;51.572;6.578;2023-03-20T16:47:35;13.40;58.70
31677;DHT22;18385;51.572;6.578;2023-03-20T16:52:43;13.40;59.00
31677;DHT22;18385;51.572;6.578;2023-03-20T16:55:20;13.50;59.10
31677;DHT22;18385;51.572;6.578;2023-03-20T16:57:49;13.40;59.00
31677;DHT22;18385;51.572;6.578;2023-03-20T17:00:43;13.40;59.00
31677;DHT22;18385;51.572;6.578;2023-03-20T17:06:24;13.50;59.10
31677;DHT22;18385;51.572;6.578;2023-03-20T17:08:54;13.40;59.10
31677;DHT22;18385;51.572;6.578;2023-03-20T17:11:37;13.50;59.20
31677;DHT22;18385;51.572;6.578;2023-03-20T17:14:04;13.50;59.20
31677;DHT22;18385;51.572;6.578;2023-03-20T17:16:30;13.50;59.20
31677;DHT22;18385;51.572;6.578;2023-03-20T17:19:12;13.50;59.20
31677;DHT22;18385;51.572;6.578;2023-03-20T17:21:38;13.50;59.30
31677;DHT22;18385;51.572;6.578;2023-03-20T17:24:04;13.50;59.20
31677;DHT22;18385;51.572;6.578;2023-03-20T17:26:30;13.50;59.30
31677;DHT22;18385;51.572;6.578;2023-03-20T17:28:55;13.50;59.30
31677;DHT22;18385;51.572;6.578;2023-03-20T17:31:21;13.50;59.40
31677;DHT22;18385;51.572;6.578;2023-03-20T17:33:47;13.50;59.30
31677;DHT22;18385;51.572;6.578;2023-03-20T17:36:28;13.50;59.40
31677;DHT22;18385;51.572;6.578;2023-03-20T17:38:55;13.50;59.50
31677;DHT22;18385;51.572;6.578;2023-03-20T17:41:21;13.50;59.60
31677;DHT22;18385;51.572;6.578;2023-03-20T17:43:47;13.50;59.50
31677;DHT22;18385;51.572;6.578;2023-03-20T17:46:27;13.50;59.50
31677;DHT22;18385;51.572;6.578;2023-03-20T17:49:11;13.50;59.60
31677;DHT22;18385;51.572;6.578;2023-03-20T17:51:37;13.50;59.60
31677;DHT22;18385;51.572;6.578;2023-03-20T17:54:03;13.50;59.60
31677;DHT22;18385;51.572;6.578;2023-03-20T17:56:29;13.50;59.50
31677;DHT22;18385;51.572;6.578;2023-03-20T17:59:01;13.50;59.60
31677;DHT22;18385;51.572;6.578;2023-03-20T18:01:27;13.50;59.60
31677;DHT22;18385;51.572;6.578;2023-03-20T18:03:53;13.50;59.70
31677;DHT22;18385;51.572;6.578;2023-03-20T18:06:27;13.50;59.70
31677;DHT22;18385;51.572;6.578;2023-03-20T18:08:54;13.50;59.70
31677;DHT22;18385;51.572;6.578;2023-03-20T18:11:20;13.50;59.70
31677;DHT22;18385;51.572;6.578;2023-03-20T18:13:46;13.50;59.80
31677;DHT22;18385;51.572;6.578;2023-03-20T18:16:18;13.50;59.80
31677;DHT22;18385;51.572;6.578;2023-03-20T18:18:44;13.50;59.90
31677;DHT22;18385;51.572;6.578;2023-03-20T18:21:11;13.50;59.90
31677;DHT22;18385;51.572;6.578;2023-03-20T18:23:38;13.50;59.90
31677;DHT22;18385;51.572;6.578;2023-03-20T18:26:04;13.40;59.90
31677;DHT22;18385;51.572;6.578;2023-03-20T18:28:34;13.40;59.90